createdAt,value
2022-07-29T00:03:17.585Z,23.05
2022-07-29T00:08:49.113Z,22.97
2022-07-29T00:14:21.357Z,22.92
2022-07-29T00:19:53.130Z,22.86
2022-07-29T00:25:24.690Z,22.80
2022-07-29T00:30:56.466Z,22.76
2022-07-29T00:36:28.834Z,22.75
2022-07-29T00:42:00.793Z,22.72
2022-07-29T00:47:32.481Z,22.74
2022-07-29T00:53:04.296Z,22.69
2022-07-29T00:58:36.033Z,22.69
2022-07-29T03:04:51.408Z,20.65
2022-07-29T03:10:23.196Z,20.59
2022-07-29T03:15:55.353Z,20.52
2022-07-29T03:21:26.855Z,20.41
2022-07-29T03:26:58.962Z,20.35
2022-07-29T03:32:30.378Z,20.25
2022-07-29T03:38:02.435Z,20.21
2022-07-29T03:43:34.697Z,20.19
2022-07-29T03:49:06.280Z,20.17
2022-07-29T03:54:38.250Z,20.12
2022-07-29T04:00:09.750Z,20.12
2022-07-29T04:02:32.946Z,20.09
2022-07-29T04:08:04.548Z,20.10
2022-07-29T04:13:36.792Z,20.09
2022-07-29T04:19:08.504Z,20.12
2022-07-29T04:24:44.036Z,20.19
2022-07-29T04:30:12.081Z,20.20
2022-07-29T04:35:47.125Z,20.82
2022-07-29T04:41:15.355Z,21.38
2022-07-29T04:46:47.331Z,22.75
2022-07-29T04:52:19.130Z,23.42
2022-07-29T04:57:50.845Z,24.77
2022-07-29T05:03:22.759Z,25.33
2022-07-29T05:08:54.558Z,25.65
2022-07-29T05:14:26.417Z,25.65
2022-07-29T05:19:58.233Z,25.31
2022-07-29T05:25:42.991Z,25.12
2022-07-29T05:31:01.748Z,24.88
2022-07-29T05:36:33.450Z,24.79
2022-07-29T05:42:05.162Z,24.69
2022-07-29T05:47:37.144Z,24.72
2022-07-29T05:53:19.421Z,25.29
2022-07-29T05:58:40.727Z,26.23
2022-07-29T06:04:12.449Z,28.08
2022-07-29T06:09:44.360Z,28.66
2022-07-29T06:15:16.211Z,29.92
2022-07-29T06:20:47.680Z,30.78
2022-07-29T06:26:19.385Z,32.40
2022-07-29T06:31:51.215Z,32.97
2022-07-29T06:37:23.447Z,33.79
2022-07-29T06:48:27.735Z,34.79
2022-07-29T06:54:02.663Z,35.03
2022-07-29T06:59:35.577Z,35.53
2022-07-29T07:05:03.198Z,35.90
2022-07-29T07:10:34.931Z,36.54
2022-07-29T07:16:06.590Z,36.85
2022-07-29T07:21:38.389Z,37.60
2022-07-29T07:27:10.189Z,37.86
2022-07-29T07:32:42.137Z,38.57
2022-07-29T07:38:13.663Z,38.81
2022-07-29T07:43:45.528Z,39.36
2022-07-29T07:49:17.637Z,39.61
2022-07-29T07:54:48.977Z,39.95
2022-07-29T08:00:23.274Z,40.04
2022-07-29T08:05:52.412Z,40.02
2022-07-29T08:11:24.002Z,40.01
2022-07-29T08:16:55.860Z,39.90
2022-07-29T08:22:27.555Z,40.00
2022-07-29T08:27:59.559Z,40.07
2022-07-29T08:33:31.586Z,40.14
2022-07-29T08:39:03.935Z,40.43
2022-07-29T08:44:35.862Z,40.66
2022-07-29T08:50:07.697Z,40.43
2022-07-29T08:55:39.726Z,39.83
2022-07-29T09:01:12.417Z,38.68
2022-07-29T09:06:43.529Z,37.81
2022-07-29T09:12:28.910Z,37.47
2022-07-29T09:17:46.943Z,36.90
2022-07-29T09:23:23.058Z,36.90
2022-07-29T09:28:50.629Z,36.90
2022-07-29T09:34:22.445Z,36.92
2022-07-29T09:39:54.185Z,36.90
2022-07-29T09:45:25.928Z,37.00
2022-07-29T09:50:57.791Z,36.81
2022-07-29T09:56:29.277Z,36.30
2022-07-29T10:02:01.082Z,35.52
2022-07-29T10:07:33.085Z,35.30
2022-07-29T10:13:09.001Z,34.79
2022-07-29T10:18:36.714Z,34.49
2022-07-29T10:24:15.109Z,34.18
2022-07-29T10:29:40.224Z,33.97
2022-07-29T10:35:12.225Z,33.81
2022-07-29T10:40:43.894Z,33.76
2022-07-29T10:51:47.963Z,33.64
2022-07-29T11:02:49.880Z,33.74
2022-07-29T11:08:21.017Z,34.07
2022-07-29T11:13:53.169Z,34.22
2022-07-29T11:19:29.885Z,34.14
2022-07-29T11:24:56.217Z,33.83
2022-07-29T11:30:35.000Z,33.25
2022-07-29T11:41:38.318Z,33.14
2022-07-29T11:47:10.284Z,33.14
2022-07-29T11:58:13.814Z,32.94
2022-07-29T12:03:46.157Z,33.08
2022-07-29T12:17:06.406Z,33.45
2022-07-29T12:22:37.188Z,33.64
2022-07-29T12:28:08.982Z,33.77
2022-07-29T12:33:40.514Z,33.90
2022-07-29T12:39:11.745Z,33.84
2022-07-29T12:55:46.926Z,33.35
2022-07-29T13:01:18.487Z,33.28
2022-07-29T13:12:23.078Z,32.80
2022-07-29T13:17:54.755Z,32.46
2022-07-29T13:23:26.322Z,32.32
2022-07-29T13:28:58.048Z,32.01
2022-07-29T13:34:30.107Z,31.83
2022-07-29T13:40:01.703Z,31.49
2022-07-29T13:45:33.896Z,31.30
2022-07-29T13:51:05.854Z,31.05
2022-07-29T13:56:38.079Z,30.94
2022-07-29T14:02:09.880Z,30.82
2022-07-29T14:13:24.326Z,30.78
2022-07-29T14:18:43.073Z,30.73
2022-07-29T14:24:18.069Z,30.68
2022-07-29T14:29:47.232Z,30.66
2022-07-29T14:35:19.152Z,30.71
2022-07-29T14:40:51.081Z,30.70
2022-07-29T14:46:22.700Z,30.53
2022-07-29T14:51:54.310Z,30.46
2022-07-29T14:57:25.919Z,30.39
2022-07-29T15:03:02.274Z,30.43
2022-07-29T15:08:29.425Z,30.37
2022-07-29T15:14:01.098Z,30.27
2022-07-29T15:25:03.114Z,29.74
2022-07-29T15:30:34.811Z,29.33
2022-07-29T15:36:06.676Z,29.17
2022-07-29T15:41:38.433Z,29.14
2022-07-29T15:47:10.018Z,29.23
2022-07-29T15:52:41.415Z,29.41
2022-07-29T15:58:13.052Z,29.47
2022-07-29T16:03:46.334Z,29.53
2022-07-29T16:09:16.293Z,29.54
2022-07-29T16:14:48.447Z,29.54
2022-07-29T16:20:20.120Z,29.53
2022-07-29T16:26:00.541Z,29.43
2022-07-29T16:31:23.351Z,29.39
2022-07-29T16:36:54.665Z,29.16
2022-07-29T16:42:45.555Z,29.09
2022-07-29T16:48:00.930Z,28.85
2022-07-29T16:53:30.244Z,28.67
2022-07-29T16:59:01.057Z,28.32
2022-07-29T17:04:32.875Z,28.15
2022-07-29T17:10:04.812Z,27.84
2022-07-29T17:15:36.546Z,27.67
2022-07-29T17:21:08.383Z,27.40
2022-07-29T17:26:40.251Z,27.30
2022-07-29T17:32:11.953Z,26.91
2022-07-29T17:37:43.876Z,26.23
2022-07-29T17:43:16.039Z,24.57
2022-07-29T17:48:47.654Z,23.85
2022-07-29T17:54:19.495Z,22.68
2022-07-29T17:59:51.173Z,22.30
2022-07-29T18:05:23.209Z,21.73
2022-07-29T18:10:54.695Z,21.57
2022-07-29T18:16:26.900Z,21.40
2022-07-29T18:22:03.534Z,21.33
2022-07-29T18:27:30.495Z,21.17
2022-07-29T18:33:20.837Z,21.11
2022-07-29T18:38:34.314Z,21.00
2022-07-29T18:44:05.957Z,20.97
2022-07-29T18:49:37.766Z,20.96
2022-07-29T18:55:09.615Z,20.96
2022-07-29T19:00:41.550Z,20.97
2022-07-29T19:06:13.280Z,20.96
2022-07-29T19:11:44.869Z,21.02
2022-07-29T19:17:16.883Z,20.99
2022-07-29T19:22:48.520Z,20.96
2022-07-29T19:28:20.245Z,20.93
2022-07-29T19:33:51.871Z,20.97
2022-07-29T19:39:35.367Z,21.00
2022-07-29T19:44:55.464Z,21.10
2022-07-29T19:50:27.590Z,21.18
2022-07-29T19:55:59.223Z,21.30
2022-07-29T20:01:31.190Z,21.31
2022-07-29T20:07:03.027Z,21.40
2022-07-29T20:12:34.756Z,21.40
2022-07-29T20:18:06.740Z,21.47
2022-07-29T20:23:38.514Z,21.45
2022-07-29T20:29:10.040Z,21.48
2022-07-29T20:34:41.968Z,21.45
2022-07-29T20:40:13.839Z,21.44
2022-07-29T20:45:45.736Z,21.41
2022-07-29T20:51:17.737Z,21.45
2022-07-29T20:56:49.657Z,21.42
2022-07-29T21:02:22.919Z,21.40
2022-07-29T21:07:58.083Z,21.36
2022-07-29T21:13:26.447Z,21.24
2022-07-29T21:18:58.047Z,21.17
2022-07-29T21:24:32.756Z,21.13
2022-07-29T21:30:05.220Z,21.09
2022-07-29T21:36:07.314Z,20.97
2022-07-29T21:41:09.104Z,20.95
2022-07-29T21:46:41.196Z,20.88
2022-07-29T21:52:13.195Z,20.86
2022-07-29T21:57:45.218Z,20.82
2022-07-29T22:03:17.228Z,20.76
2022-07-29T22:08:52.520Z,20.69
2022-07-29T22:14:24.410Z,20.63
2022-07-29T22:19:56.562Z,20.61
2022-07-29T22:25:28.474Z,20.58
2022-07-29T22:31:00.336Z,20.55
2022-07-29T22:36:32.360Z,20.52
2022-07-29T22:42:04.618Z,20.47
2022-07-29T22:53:08.270Z,20.42
2022-07-29T22:58:40.100Z,20.37
2022-07-29T23:04:12.143Z,20.35
2022-07-29T23:09:43.778Z,20.33
2022-07-29T23:15:15.632Z,20.27
2022-07-29T23:20:47.525Z,20.21
2022-07-29T23:26:19.603Z,20.16
2022-07-29T23:31:51.800Z,20.12
2022-07-29T23:37:23.653Z,20.06
2022-07-29T23:42:55.782Z,20.03
2022-07-29T23:48:27.672Z,20.02
2022-07-29T23:53:59.705Z,20.02
2022-07-29T23:59:31.817Z,20.02
